Time;durP1;ratioP1;P1;durP2;ratioP2;P2;SDS_P1;SDS_P2;PMS_P1;PMS_P2;Temp;Humidity;BMP_temperature;BMP_pressure;BME280_temperature;BME280_humidity;BME280_pressure;Samples;Min_cycle;Max_cycle;Signal;HPM_P1;HPM_P2
2021/12/18 00:01:43;;;;;;;16.10;12.33;;;;;;;;;;5044229;28;20464;-55
2021/12/18 00:04:09;;;;;;;17.70;12.20;;;;;;;;;;5031665;28;20117;-52
2021/12/18 00:06:35;;;;;;;18.77;14.50;;;;;;;;;;5031571;28;20029;-54
2021/12/18 00:09:01;;;;;;;21.40;14.83;;;;;;;;;;5030919;28;20071;-56
2021/12/18 00:11:28;;;;;;;18.43;13.80;;;;;;;;;;5031965;28;20064;-53
2021/12/18 00:13:54;;;;;;;19.90;13.50;;;;;;;;;;5031862;28;20053;-53
2021/12/18 00:16:20;;;;;;;18.87;14.70;;;;;;;;;;5031672;28;20085;-54
2021/12/18 00:18:48;;;;;;;17.77;12.33;;;;;;;;;;5030991;28;20116;-56
2021/12/18 00:21:17;;;;;;;12.87;11.43;;;;;;;;;;5031449;28;20038;-51
2021/12/18 00:23:43;;;;;;;15.00;13.40;;;;;;;;;;5031602;28;20057;-56
2021/12/18 00:26:09;;;;;;;16.07;13.00;;;;;;;;;;5031603;28;20077;-54
2021/12/18 00:28:36;;;;;;;18.47;12.87;;;;;;;;;;5031061;28;20030;-55
2021/12/18 00:31:02;;;;;;;15.93;13.77;;;;;;;;;;5031649;28;20103;-55
2021/12/18 00:33:28;;;;;;;18.33;14.07;;;;;;;;;;5031487;28;20114;-53
2021/12/18 00:35:54;;;;;;;16.43;13.60;;;;;;;;;;5031495;28;20385;-53
2021/12/18 00:38:28;;;;;;;16.55;13.40;;;;;;;;;;5030895;28;20171;-52
2021/12/18 00:43:39;;;;;;;22.00;15.00;;;;;;;;;;5033045;28;20090;-51
2021/12/18 00:46:05;;;;;;;16.23;14.10;;;;;;;;;;5034766;28;20460;-53
2021/12/18 00:48:31;;;;;;;16.03;13.30;;;;;;;;;;5034257;28;20033;-51
2021/12/18 00:50:57;;;;;;;18.10;14.23;;;;;;;;;;5035079;28;20471;-51
2021/12/18 00:53:23;;;;;;;18.73;14.33;;;;;;;;;;5035159;28;20111;-56
2021/12/18 00:55:51;;;;;;;17.33;14.03;;;;;;;;;;5034721;28;20037;-53
2021/12/18 00:58:18;;;;;;;18.30;13.30;;;;;;;;;;5034048;28;20045;-55
2021/12/18 01:00:46;;;;;;;17.73;12.90;;;;;;;;;;5034444;28;20465;-55
2021/12/18 01:03:18;;;;;;;15.53;13.10;;;;;;;;;;5054282;28;20522;-54
2021/12/18 01:05:45;;;;;;;17.57;14.03;;;;;;;;;;5054590;28;20071;-54
2021/12/18 01:08:11;;;;;;;19.13;15.47;;;;;;;;;;5053776;28;20036;-53
2021/12/18 01:13:27;;;;;;;17.80;15.87;;;;;;;;;;5054427;28;20462;-52
2021/12/18 01:15:56;;;;;;;20.37;14.73;;;;;;;;;;5054458;28;20037;-52
2021/12/18 01:23:51;;;;;;;18.57;15.07;;;;;;;;;;5054301;28;20051;-54
2021/12/18 01:26:17;;;;;;;27.53;18.33;;;;;;;;;;5054200;28;20029;-55
2021/12/18 01:28:44;;;;;;;21.27;15.57;;;;;;;;;;5053577;28;20068;-54
2021/12/18 01:31:10;;;;;;;18.97;14.37;;;;;;;;;;5054192;28;20033;-55
2021/12/18 01:33:36;;;;;;;21.43;14.87;;;;;;;;;;5054060;28;20454;-53
2021/12/18 01:36:02;;;;;;;20.00;16.07;;;;;;;;;;5054054;28;20128;-51
2021/12/18 01:38:30;;;;;;;21.97;17.83;;;;;;;;;;5053383;28;20056;-52
2021/12/18 01:40:56;;;;;;;20.57;14.93;;;;;;;;;;5053815;28;20040;-52
2021/12/18 01:51:34;;;;;;;21.07;16.87;;;;;;;;;;5053765;28;20426;-52
2021/12/18 01:54:00;;;;;;;16.97;13.30;;;;;;;;;;5053527;28;20075;-54
2021/12/18 01:56:27;;;;;;;21.37;16.33;;;;;;;;;;5052458;28;20029;-55
2021/12/18 01:58:54;;;;;;;18.93;16.47;;;;;;;;;;5053255;28;20025;-53
2021/12/18 02:01:20;;;;;;;21.33;16.67;;;;;;;;;;5049756;28;20029;-51
2021/12/18 02:03:47;;;;;;;22.00;15.60;;;;;;;;;;5033612;28;20065;-52
2021/12/18 02:06:13;;;;;;;19.63;15.80;;;;;;;;;;5033537;28;20025;-55
2021/12/18 02:08:39;;;;;;;20.60;15.83;;;;;;;;;;5032886;28;20083;-52
2021/12/18 02:11:15;;;;;;;21.17;15.00;;;;;;;;;;5033306;28;20026;-55
2021/12/18 02:21:53;;;;;;;21.77;16.43;;;;;;;;;;5033144;28;20052;-53
2021/12/18 02:24:22;;;;;;;17.30;14.10;;;;;;;;;;5033345;28;20040;-53
2021/12/18 02:26:48;;;;;;;22.37;14.43;;;;;;;;;;5032854;28;20067;-55
2021/12/18 02:29:16;;;;;;;21.80;15.83;;;;;;;;;;5032562;28;20057;-54
2021/12/18 02:31:42;;;;;;;19.63;15.53;;;;;;;;;;5033105;28;20040;-54
2021/12/18 02:34:15;;;;;;;19.43;14.13;;;;;;;;;;5032826;28;20029;-53
2021/12/18 02:36:49;;;;;;;18.90;15.97;;;;;;;;;;5032697;28;20551;-51
2021/12/18 02:42:08;;;;;;;18.63;15.43;;;;;;;;;;5032881;28;20056;-55
2021/12/18 02:44:34;;;;;;;20.57;14.43;;;;;;;;;;5032782;28;20033;-54
2021/12/18 02:47:00;;;;;;;20.43;15.27;;;;;;;;;;5032421;28;20060;-52
2021/12/18 02:49:27;;;;;;;23.33;17.33;;;;;;;;;;5032071;28;20030;-55
2021/12/18 02:51:53;;;;;;;19.90;14.17;;;;;;;;;;5032707;28;20395;-56
2021/12/18 02:54:19;;;;;;;17.47;13.30;;;;;;;;;;5032705;28;20026;-55
2021/12/18 02:56:45;;;;;;;28.27;18.03;;;;;;;;;;5032299;28;20496;-55
2021/12/18 02:59:11;;;;;;;22.20;15.53;;;;;;;;;;5031935;28;20036;-52
2021/12/18 03:01:39;;;;;;;19.97;15.73;;;;;;;;;;5038472;28;20049;-55
2021/12/18 03:04:40;;;;;;;19.30;15.40;;;;;;;;;;5052618;28;20351;-53
2021/12/18 03:06:58;;;;;;;22.97;13.93;;;;;;;;;;5050736;28;20041;-55
2021/12/18 03:25:23;;;;;;;21.07;16.43;;;;;;;;;;5052224;28;20035;-49
2021/12/18 03:27:50;;;;;;;22.23;14.97;;;;;;;;;;5051175;28;20481;-49
2021/12/18 03:30:17;;;;;;;22.93;16.57;;;;;;;;;;5052009;28;20060;-52
2021/12/18 03:32:43;;;;;;;18.00;13.77;;;;;;;;;;5051906;28;20036;-49
2021/12/18 03:35:10;;;;;;;22.37;15.57;;;;;;;;;;5051755;28;20546;-49
2021/12/18 03:37:36;;;;;;;20.70;14.57;;;;;;;;;;5051945;28;20351;-51
2021/12/18 03:40:06;;;;;;;22.60;15.77;;;;;;;;;;5051365;28;20040;-49
2021/12/18 03:42:33;;;;;;;19.03;14.73;;;;;;;;;;5051788;28;20108;-52
2021/12/18 03:44:59;;;;;;;21.03;15.17;;;;;;;;;;5051891;28;20078;-49
2021/12/18 03:47:25;;;;;;;20.77;15.00;;;;;;;;;;5051591;28;20029;-55
2021/12/18 03:49:51;;;;;;;24.57;15.17;;;;;;;;;;5051050;28;20385;-53
2021/12/18 03:52:17;;;;;;;18.70;13.90;;;;;;;;;;5051991;28;20331;-53
2021/12/18 03:54:43;;;;;;;20.60;14.97;;;;;;;;;;5051950;28;20035;-55
2021/12/18 03:57:09;;;;;;;19.40;14.20;;;;;;;;;;5051715;28;20025;-52
2021/12/18 03:59:35;;;;;;;24.17;13.43;;;;;;;;;;5051227;28;20028;-50
2021/12/18 04:02:01;;;;;;;21.37;15.03;;;;;;;;;;5041985;28;20396;-52
2021/12/18 04:04:27;;;;;;;22.03;15.43;;;;;;;;;;5032082;28;20029;-55
2021/12/18 04:06:53;;;;;;;20.43;13.77;;;;;;;;;;5031748;28;20025;-52
2021/12/18 04:09:19;;;;;;;22.73;15.10;;;;;;;;;;5031300;28;20028;-54
2021/12/18 04:11:45;;;;;;;18.23;14.53;;;;;;;;;;5031730;28;20025;-54
2021/12/18 04:14:12;;;;;;;25.23;14.17;;;;;;;;;;5031663;28;20030;-52
2021/12/18 04:16:38;;;;;;;19.40;13.30;;;;;;;;;;5031434;28;20116;-52
2021/12/18 04:19:05;;;;;;;20.20;15.13;;;;;;;;;;5033138;28;20057;-51
2021/12/18 04:21:31;;;;;;;18.73;12.60;;;;;;;;;;5035549;28;20043;-55
2021/12/18 04:23:58;;;;;;;26.23;15.83;;;;;;;;;;5035469;28;20237;-54
2021/12/18 04:26:24;;;;;;;23.37;16.07;;;;;;;;;;5035327;28;20029;-56
2021/12/18 04:28:50;;;;;;;17.03;12.80;;;;;;;;;;5034599;28;20152;-54
2021/12/18 04:31:16;;;;;;;19.10;14.00;;;;;;;;;;5030408;28;20034;-50
2021/12/18 04:33:43;;;;;;;18.47;12.63;;;;;;;;;;5035406;28;20120;-51
2021/12/18 04:36:09;;;;;;;20.20;13.77;;;;;;;;;;5035328;28;20124;-53
2021/12/18 04:38:35;;;;;;;18.77;14.43;;;;;;;;;;5034572;28;20104;-53
2021/12/18 04:41:02;;;;;;;22.17;16.50;;;;;;;;;;5035161;28;20037;-54
2021/12/18 04:43:28;;;;;;;19.87;13.77;;;;;;;;;;5034800;28;20036;-51
2021/12/18 04:45:54;;;;;;;18.13;13.63;;;;;;;;;;5034949;28;20036;-52
2021/12/18 04:48:20;;;;;;;18.40;13.07;;;;;;;;;;5034466;28;20025;-53
2021/12/18 04:50:46;;;;;;;19.03;14.33;;;;;;;;;;5035115;28;20117;-54
2021/12/18 04:53:12;;;;;;;15.47;12.27;;;;;;;;;;5034862;28;20067;-56
2021/12/18 04:55:38;;;;;;;15.43;12.90;;;;;;;;;;5032081;28;20076;-55
2021/12/18 04:58:04;;;;;;;24.97;16.33;;;;;;;;;;5033996;28;20057;-53
2021/12/18 05:00:36;;;;;;;18.97;11.73;;;;;;;;;;5034056;28;20057;-52
2021/12/18 05:03:05;;;;;;;15.10;11.57;;;;;;;;;;5052853;28;20355;-55
2021/12/18 05:05:31;;;;;;;15.33;11.17;;;;;;;;;;5054773;28;20017;-52
2021/12/18 05:07:57;;;;;;;22.70;14.13;;;;;;;;;;5053782;28;20022;-54
2021/12/18 05:10:23;;;;;;;22.07;14.50;;;;;;;;;;5054710;28;20434;-53
2021/12/18 05:12:49;;;;;;;15.47;13.13;;;;;;;;;;5054248;28;20021;-53
2021/12/18 05:15:15;;;;;;;17.33;12.43;;;;;;;;;;5054439;28;20024;-53
2021/12/18 05:17:41;;;;;;;19.10;14.50;;;;;;;;;;5054065;28;20078;-55
2021/12/18 05:20:07;;;;;;;18.10;13.03;;;;;;;;;;5054392;28;20036;-53
2021/12/18 05:22:34;;;;;;;18.33;12.63;;;;;;;;;;5054118;28;20384;-55
2021/12/18 05:25:00;;;;;;;22.40;12.97;;;;;;;;;;5054392;28;20144;-54
2021/12/18 05:27:26;;;;;;;19.63;13.50;;;;;;;;;;5054059;28;20024;-53
2021/12/18 05:29:52;;;;;;;21.70;13.33;;;;;;;;;;5051606;28;20044;-55
2021/12/18 05:32:18;;;;;;;14.77;12.00;;;;;;;;;;5054262;28;20036;-54
2021/12/18 05:34:44;;;;;;;17.97;12.73;;;;;;;;;;5054087;28;20037;-54
2021/12/18 05:37:30;;;;;;;17.83;11.87;;;;;;;;;;5054102;28;20112;-52
2021/12/18 05:39:56;;;;;;;18.63;13.23;;;;;;;;;;5051699;28;20021;-55
2021/12/18 05:42:22;;;;;;;14.70;11.23;;;;;;;;;;5042845;28;20088;-52
2021/12/18 05:44:48;;;;;;;16.03;13.17;;;;;;;;;;5035284;28;20061;-54
2021/12/18 05:47:14;;;;;;;20.63;16.77;;;;;;;;;;5033899;28;20030;-53
2021/12/18 05:49:40;;;;;;;20.90;13.97;;;;;;;;;;5033207;28;20364;-52
2021/12/18 05:52:07;;;;;;;14.90;12.20;;;;;;;;;;5033873;28;20033;-53
2021/12/18 05:54:35;;;;;;;16.03;11.60;;;;;;;;;;5033631;28;20046;-56
2021/12/18 05:57:09;;;;;;;17.27;12.40;;;;;;;;;;5032140;28;20067;-51
2021/12/18 05:59:35;;;;;;;16.90;13.57;;;;;;;;;;5051208;28;20033;-55
2021/12/18 06:02:01;;;;;;;19.00;13.50;;;;;;;;;;5043946;28;20069;-54
2021/12/18 06:04:27;;;;;;;16.97;12.47;;;;;;;;;;5033441;28;20025;-54
2021/12/18 06:07:03;;;;;;;20.03;12.03;;;;;;;;;;5033394;28;20029;-52
2021/12/18 06:09:29;;;;;;;17.83;12.27;;;;;;;;;;5032992;28;20057;-52
2021/12/18 06:11:55;;;;;;;15.77;12.80;;;;;;;;;;5033665;28;20116;-49
2021/12/18 06:14:21;;;;;;;13.97;11.27;;;;;;;;;;5034387;28;20116;-51
2021/12/18 06:16:47;;;;;;;19.77;12.27;;;;;;;;;;5033181;28;20076;-53
2021/12/18 06:19:13;;;;;;;17.67;13.30;;;;;;;;;;5032528;28;20444;-50
2021/12/18 06:21:39;;;;;;;20.13;12.00;;;;;;;;;;5033455;28;20438;-52
2021/12/18 06:24:05;;;;;;;18.07;13.00;;;;;;;;;;5033564;28;20032;-52
2021/12/18 06:26:31;;;;;;;16.80;12.03;;;;;;;;;;5033311;28;20084;-49
2021/12/18 06:28:57;;;;;;;15.37;12.83;;;;;;;;;;5043096;28;20048;-50
2021/12/18 06:31:23;;;;;;;14.97;12.43;;;;;;;;;;5052866;28;20067;-54
2021/12/18 06:33:49;;;;;;;16.77;11.33;;;;;;;;;;5052748;28;20025;-53
2021/12/18 06:36:15;;;;;;;15.73;11.63;;;;;;;;;;5053164;28;20098;-53
2021/12/18 06:38:41;;;;;;;15.67;12.60;;;;;;;;;;5052552;28;20063;-52
2021/12/18 06:41:07;;;;;;;15.90;10.30;;;;;;;;;;5052309;28;20029;-54
2021/12/18 06:43:33;;;;;;;13.83;11.00;;;;;;;;;;5036594;28;20036;-54
2021/12/18 06:45:59;;;;;;;14.03;10.30;;;;;;;;;;5052542;28;20039;-55
2021/12/18 06:48:25;;;;;;;18.20;12.47;;;;;;;;;;5051964;28;20031;-55
2021/12/18 06:50:51;;;;;;;11.63;9.60;;;;;;;;;;5053052;28;20425;-53
2021/12/18 06:53:17;;;;;;;15.63;10.70;;;;;;;;;;5052956;28;20025;-54
2021/12/18 06:55:43;;;;;;;16.50;10.50;;;;;;;;;;5052493;28;20025;-51
2021/12/18 06:58:09;;;;;;;16.67;11.87;;;;;;;;;;5048601;28;20032;-50
2021/12/18 07:00:35;;;;;;;13.10;10.10;;;;;;;;;;5050739;28;20025;-53
2021/12/18 07:03:01;;;;;;;14.20;10.23;;;;;;;;;;5039143;28;20060;-55
2021/12/18 07:05:27;;;;;;;17.97;9.13;;;;;;;;;;5043166;28;20060;-53
2021/12/18 07:07:53;;;;;;;15.60;9.83;;;;;;;;;;5044779;28;20036;-51
2021/12/18 07:10:20;;;;;;;14.87;8.83;;;;;;;;;;5033575;28;20518;-54
2021/12/18 07:12:46;;;;;;;11.63;8.30;;;;;;;;;;5032509;28;20037;-55
2021/12/18 07:15:13;;;;;;;16.97;8.53;;;;;;;;;;5032246;28;20052;-55
2021/12/18 07:17:39;;;;;;;16.80;10.83;;;;;;;;;;5043321;28;20056;-52
2021/12/18 07:20:06;;;;;;;11.23;8.47;;;;;;;;;;5051411;28;20052;-52
2021/12/18 07:22:32;;;;;;;13.50;9.60;;;;;;;;;;5052278;28;20104;-50
2021/12/18 07:24:58;;;;;;;15.07;9.97;;;;;;;;;;5052147;28;20125;-55
2021/12/18 07:27:24;;;;;;;16.73;10.97;;;;;;;;;;5050285;28;20055;-53
2021/12/18 07:29:50;;;;;;;14.00;8.20;;;;;;;;;;5051483;28;20375;-54
2021/12/18 07:32:16;;;;;;;10.80;8.47;;;;;;;;;;5051856;28;20029;-53
2021/12/18 07:34:42;;;;;;;14.60;9.83;;;;;;;;;;5051827;28;20040;-54
2021/12/18 07:37:07;;;;;;;17.47;11.37;;;;;;;;;;5044403;28;20107;-53
2021/12/18 07:39:33;;;;;;;18.90;13.00;;;;;;;;;;5031406;28;20026;-50
2021/12/18 07:41:59;;;;;;;13.90;9.47;;;;;;;;;;5032136;28;20172;-52
2021/12/18 07:44:25;;;;;;;13.87;9.77;;;;;;;;;;5032358;28;20037;-52
2021/12/18 07:46:51;;;;;;;16.17;9.83;;;;;;;;;;5048526;28;20391;-52
2021/12/18 07:49:17;;;;;;;16.33;10.20;;;;;;;;;;5051291;28;20086;-51
2021/12/18 07:51:43;;;;;;;15.00;10.87;;;;;;;;;;5051886;28;20090;-53
2021/12/18 07:54:09;;;;;;;15.17;10.83;;;;;;;;;;5055925;28;20039;-52
2021/12/18 07:56:36;;;;;;;15.87;9.13;;;;;;;;;;5055974;28;20025;-52
2021/12/18 07:59:02;;;;;;;18.87;11.60;;;;;;;;;;5049366;28;20025;-52
2021/12/18 08:01:28;;;;;;;17.97;10.80;;;;;;;;;;5039822;28;20065;-53
2021/12/18 08:03:55;;;;;;;15.73;10.33;;;;;;;;;;5037904;28;20083;-53
2021/12/18 08:06:21;;;;;;;14.97;10.40;;;;;;;;;;5044332;28;20383;-53
2021/12/18 08:08:47;;;;;;;18.93;11.53;;;;;;;;;;5038081;28;20025;-53
2021/12/18 08:11:13;;;;;;;16.40;11.73;;;;;;;;;;5043620;28;20037;-55
2021/12/18 08:13:39;;;;;;;15.10;11.90;;;;;;;;;;5050027;28;20372;-52
2021/12/18 08:16:05;;;;;;;13.50;9.33;;;;;;;;;;5045873;28;20104;-52
2021/12/18 08:18:31;;;;;;;15.10;9.70;;;;;;;;;;5049984;28;20029;-52
2021/12/18 08:20:58;;;;;;;16.30;10.67;;;;;;;;;;5050026;28;20391;-54
2021/12/18 08:23:24;;;;;;;14.87;10.47;;;;;;;;;;5038956;28;20032;-53
2021/12/18 08:25:51;;;;;;;13.77;10.03;;;;;;;;;;5043462;28;20025;-52
2021/12/18 08:28:16;;;;;;;14.63;10.13;;;;;;;;;;5041610;28;20033;-54
2021/12/18 08:30:42;;;;;;;11.23;9.63;;;;;;;;;;5054632;28;20036;-51
2021/12/18 08:33:08;;;;;;;14.43;10.47;;;;;;;;;;5047247;28;20039;-54
2021/12/18 08:35:34;;;;;;;14.03;10.07;;;;;;;;;;5054832;28;20036;-52
2021/12/18 08:38:01;;;;;;;15.23;10.47;;;;;;;;;;5035979;28;20475;-53
2021/12/18 08:40:27;;;;;;;15.23;10.17;;;;;;;;;;5034965;28;20026;-51
2021/12/18 08:42:53;;;;;;;14.03;10.47;;;;;;;;;;5041537;28;20398;-51
2021/12/18 08:45:20;;;;;;;16.07;11.40;;;;;;;;;;5034392;28;20033;-49
2021/12/18 08:47:46;;;;;;;15.53;11.77;;;;;;;;;;5034917;28;20056;-54
2021/12/18 08:50:17;;;;;;;12.97;9.07;;;;;;;;;;5034526;28;20025;-51
2021/12/18 08:52:43;;;;;;;14.95;9.60;;;;;;;;;;5054277;28;20036;-52
2021/12/18 08:55:09;;;;;;;16.13;10.17;;;;;;;;;;5052996;28;20386;-50
2021/12/18 08:57:35;;;;;;;15.27;9.83;;;;;;;;;;5046189;28;20431;-53
2021/12/18 09:00:01;;;;;;;14.17;10.27;;;;;;;;;;5047100;28;20411;-54
2021/12/18 09:02:27;;;;;;;13.83;10.93;;;;;;;;;;5040281;28;20045;-50
2021/12/18 09:04:53;;;;;;;16.73;11.40;;;;;;;;;;5041087;28;20025;-54
2021/12/18 09:07:19;;;;;;;17.50;11.23;;;;;;;;;;5033577;28;20039;-53
2021/12/18 09:09:46;;;;;;;13.73;11.20;;;;;;;;;;5043703;28;20029;-53
2021/12/18 09:12:12;;;;;;;17.90;12.87;;;;;;;;;;5044893;28;20041;-54
2021/12/18 09:14:39;;;;;;;15.77;12.13;;;;;;;;;;5040391;28;20035;-55
2021/12/18 09:17:05;;;;;;;13.70;9.97;;;;;;;;;;5041230;28;20139;-53
2021/12/18 09:19:31;;;;;;;13.13;10.13;;;;;;;;;;5042994;28;20094;-55
2021/12/18 09:21:58;;;;;;;13.03;9.93;;;;;;;;;;5033861;28;20064;-53
2021/12/18 09:24:24;;;;;;;16.87;10.60;;;;;;;;;;5043929;28;20058;-52
2021/12/18 09:26:51;;;;;;;15.97;10.60;;;;;;;;;;5044882;28;20025;-54
2021/12/18 09:29:17;;;;;;;14.90;9.63;;;;;;;;;;5043241;28;20030;-53
2021/12/18 09:31:43;;;;;;;16.27;10.53;;;;;;;;;;5043602;28;20491;-53
2021/12/18 09:34:09;;;;;;;16.23;10.37;;;;;;;;;;5047436;28;20033;-55
2021/12/18 09:36:35;;;;;;;12.40;9.57;;;;;;;;;;5042968;28;20052;-53
2021/12/18 09:39:01;;;;;;;18.23;9.93;;;;;;;;;;5037212;28;20085;-51
2021/12/18 09:41:28;;;;;;;12.77;8.40;;;;;;;;;;5036708;28;20467;-50
2021/12/18 09:43:54;;;;;;;17.37;9.60;;;;;;;;;;5040753;28;20239;-56
2021/12/18 09:46:20;;;;;;;16.47;9.00;;;;;;;;;;5042365;28;20158;-54
2021/12/18 09:48:46;;;;;;;13.10;10.03;;;;;;;;;;5048853;28;20059;-49
2021/12/18 09:51:22;;;;;;;14.30;8.33;;;;;;;;;;5033714;28;20134;-53
2021/12/18 09:53:48;;;;;;;14.87;10.17;;;;;;;;;;5049571;28;20033;-51
2021/12/18 09:56:14;;;;;;;13.43;9.90;;;;;;;;;;5037033;28;20112;-54
2021/12/18 09:58:40;;;;;;;11.70;8.70;;;;;;;;;;5045629;28;20448;-52
2021/12/18 10:01:06;;;;;;;15.13;12.07;;;;;;;;;;5030404;28;20041;-55
2021/12/18 10:03:52;;;;;;;12.93;10.43;;;;;;;;;;5036735;28;20381;-51
2021/12/18 10:06:36;;;;;;;12.47;10.07;;;;;;;;;;5038761;28;20032;-54
2021/12/18 10:09:25;;;;;;;18.13;11.50;;;;;;;;;;5039469;28;20040;-51
2021/12/18 10:11:52;;;;;;;13.60;10.90;;;;;;;;;;5039392;28;20049;-53
2021/12/18 10:14:19;;;;;;;13.67;9.73;;;;;;;;;;5032590;28;20160;-54
2021/12/18 10:16:45;;;;;;;15.77;10.00;;;;;;;;;;5035552;28;20025;-53
2021/12/18 10:19:24;;;;;;;12.13;9.40;;;;;;;;;;5048634;28;20028;-55
2021/12/18 10:22:01;;;;;;;10.87;8.30;;;;;;;;;;5038847;28;20091;-53
2021/12/18 10:24:28;;;;;;;12.80;8.57;;;;;;;;;;5030799;28;20128;-52
2021/12/18 10:26:53;;;;;;;12.87;8.80;;;;;;;;;;5030679;28;20086;-52
2021/12/18 10:29:34;;;;;;;14.00;10.27;;;;;;;;;;5030046;28;20550;-54
2021/12/18 10:32:00;;;;;;;;;;;;;;;;;;5032131;28;20064;-55
2021/12/18 10:34:27;;;;;;;12.00;9.70;;;;;;;;;;5030487;28;19951;-53
2021/12/18 10:37:11;;;;;;;12.10;9.63;;;;;;;;;;5067108;28;20494;-53
2021/12/18 10:39:38;;;;;;;13.10;11.03;;;;;;;;;;5076566;28;20039;-53
2021/12/18 10:42:17;;;;;;;14.67;10.47;;;;;;;;;;5066240;28;20039;-50
2021/12/18 10:44:55;;;;;;;13.03;9.67;;;;;;;;;;5065947;28;20044;-52
2021/12/18 10:47:22;;;;;;;16.87;14.27;;;;;;;;;;5065659;28;20063;-51
2021/12/18 10:49:48;;;;;;;14.43;10.20;;;;;;;;;;5065645;28;20035;-47
2021/12/18 10:52:14;;;;;;;13.60;10.13;;;;;;;;;;5065832;28;20028;-52
2021/12/18 10:54:40;;;;;;;13.93;10.33;;;;;;;;;;5067072;28;20430;-50
2021/12/18 10:57:19;;;;;;;13.90;10.57;;;;;;;;;;5066981;28;20040;-52
2021/12/18 10:59:48;;;;;;;20.57;11.87;;;;;;;;;;5066128;28;20021;-52
2021/12/18 11:02:15;;;;;;;13.70;10.20;;;;;;;;;;5068485;28;20517;-51
2021/12/18 11:04:42;;;;;;;15.10;11.70;;;;;;;;;;5067766;28;20035;-55
2021/12/18 11:07:22;;;;;;;12.30;8.97;;;;;;;;;;5067801;28;20082;-52
2021/12/18 11:10:14;;;;;;;11.70;8.60;;;;;;;;;;5066492;28;20028;-54
2021/12/18 11:15:19;;;;;;;19.03;12.10;;;;;;;;;;5067541;28;20039;-52
2021/12/18 11:17:46;;;;;;;14.53;9.30;;;;;;;;;;5065729;28;20032;-53
2021/12/18 11:20:12;;;;;;;20.40;11.30;;;;;;;;;;5068196;28;20028;-51
2021/12/18 11:22:38;;;;;;;18.40;11.57;;;;;;;;;;5067738;28;20371;-51
2021/12/18 11:25:06;;;;;;;13.93;10.50;;;;;;;;;;5067795;28;20029;-54
2021/12/18 11:27:33;;;;;;;15.63;10.00;;;;;;;;;;5066397;28;20024;-52
2021/12/18 11:30:06;;;;;;;15.80;9.37;;;;;;;;;;5065741;28;20261;-52
2021/12/18 11:32:34;;;;;;;10.37;8.20;;;;;;;;;;5067701;28;20117;-55
2021/12/18 11:35:03;;;;;;;14.83;10.53;;;;;;;;;;5067669;28;20040;-51
2021/12/18 11:37:34;;;;;;;16.43;10.90;;;;;;;;;;5067534;28;20024;-54
2021/12/18 11:40:04;;;;;;;14.75;10.23;;;;;;;;;;5066849;28;20051;-52
2021/12/18 11:42:31;;;;;;;17.40;11.23;;;;;;;;;;5067719;28;20024;-54
2021/12/18 11:44:57;;;;;;;14.20;9.20;;;;;;;;;;5065629;28;20025;-53
2021/12/18 11:47:26;;;;;;;12.70;8.87;;;;;;;;;;5059437;28;20037;-53
2021/12/18 11:49:53;;;;;;;14.80;9.80;;;;;;;;;;5053218;28;20037;-53
2021/12/18 11:52:20;;;;;;;11.27;7.93;;;;;;;;;;5055220;28;20115;-53
2021/12/18 11:54:50;;;;;;;13.97;9.57;;;;;;;;;;5053957;28;20025;-54
2021/12/18 11:57:35;;;;;;;16.17;10.73;;;;;;;;;;5053421;28;20044;-52
2021/12/18 12:00:02;;;;;;;10.27;8.43;;;;;;;;;;5052370;28;20033;-52
2021/12/18 12:02:47;;;;;;;12.83;9.07;;;;;;;;;;5046989;28;20079;-52
2021/12/18 12:05:14;;;;;;;16.17;10.00;;;;;;;;;;5053293;28;20028;-50
2021/12/18 12:07:42;;;;;;;13.87;9.77;;;;;;;;;;5044798;28;20018;-53
2021/12/18 12:10:59;;;;;;;12.27;9.17;;;;;;;;;;5035485;28;20118;-54
2021/12/18 12:13:05;;;;;;;13.13;9.27;;;;;;;;;;5046161;28;20052;-51
2021/12/18 12:15:31;;;;;;;14.70;9.07;;;;;;;;;;5039746;28;20475;-53
2021/12/18 12:18:03;;;;;;;11.93;9.17;;;;;;;;;;5038886;28;20425;-50
2021/12/18 12:20:39;;;;;;;16.80;9.07;;;;;;;;;;5038107;28;20025;-51
2021/12/18 12:23:05;;;;;;;13.33;10.10;;;;;;;;;;5036696;28;20143;-53
2021/12/18 12:25:36;;;;;;;16.60;11.77;;;;;;;;;;5041648;28;20033;-52
2021/12/18 12:28:10;;;;;;;14.13;10.33;;;;;;;;;;5035898;28;20041;-53
2021/12/18 12:30:43;;;;;;;17.03;10.57;;;;;;;;;;5037794;28;20036;-52
2021/12/18 12:33:10;;;;;;;14.70;11.90;;;;;;;;;;5034820;28;20044;-49
2021/12/18 12:35:55;;;;;;;19.87;11.40;;;;;;;;;;5034914;28;20041;-49
2021/12/18 12:38:22;;;;;;;13.97;9.87;;;;;;;;;;5036758;28;20045;-48
2021/12/18 12:40:48;;;;;;;14.27;11.30;;;;;;;;;;5039152;28;20100;-52
2021/12/18 12:43:16;;;;;;;17.53;14.63;;;;;;;;;;5036180;28;20034;-50
2021/12/18 12:45:46;;;;;;;12.77;10.50;;;;;;;;;;5035832;28;20025;-55
2021/12/18 12:48:12;;;;;;;14.20;11.13;;;;;;;;;;5032315;28;20029;-54
2021/12/18 12:50:38;;;;;;;14.13;10.83;;;;;;;;;;5038303;28;20037;-52
2021/12/18 12:53:06;;;;;;;16.33;11.07;;;;;;;;;;5037279;28;20213;-54
2021/12/18 12:55:38;;;;;;;15.63;10.70;;;;;;;;;;5038707;28;20467;-51
2021/12/18 12:58:14;;;;;;;12.53;10.50;;;;;;;;;;5034815;28;20454;-50
2021/12/18 13:00:43;;;;;;;14.27;10.60;;;;;;;;;;5037486;28;20499;-54
2021/12/18 13:03:11;;;;;;;12.93;9.03;;;;;;;;;;5040453;28;20483;-54
2021/12/18 13:06:03;;;;;;;14.97;10.17;;;;;;;;;;5044302;28;20112;-52
2021/12/18 13:08:32;;;;;;;16.87;10.90;;;;;;;;;;5038086;28;20044;-52
2021/12/18 13:10:59;;;;;;;18.03;12.90;;;;;;;;;;5040602;28;20091;-52
2021/12/18 13:13:26;;;;;;;16.00;11.63;;;;;;;;;;5039090;28;20029;-51
2021/12/18 13:16:03;;;;;;;14.20;11.27;;;;;;;;;;5052362;28;20037;-52
2021/12/18 13:18:35;;;;;;;12.43;9.37;;;;;;;;;;5052349;28;20041;-50
2021/12/18 13:21:21;;;;;;;17.87;9.97;;;;;;;;;;5052864;28;20031;-53
2021/12/18 13:23:49;;;;;;;12.43;9.13;;;;;;;;;;5052911;28;20112;-51
2021/12/18 13:26:20;;;;;;;17.27;10.53;;;;;;;;;;5052408;28;20029;-55
2021/12/18 13:28:50;;;;;;;14.57;10.20;;;;;;;;;;5048952;28;20135;-54
2021/12/18 13:31:17;;;;;;;16.25;10.98;;;;;;;;;;5042022;28;20032;-53
2021/12/18 13:33:43;;;;;;;15.23;9.70;;;;;;;;;;5043197;28;20028;-55
2021/12/18 13:36:09;;;;;;;13.70;10.30;;;;;;;;;;5050007;28;20083;-55
2021/12/18 13:38:39;;;;;;;11.20;9.33;;;;;;;;;;5039840;28;20494;-55
2021/12/18 13:41:13;;;;;;;14.57;10.85;;;;;;;;;;5052763;28;20025;-55
2021/12/18 13:43:40;;;;;;;13.83;10.93;;;;;;;;;;5064940;28;20406;-54
2021/12/18 13:46:07;;;;;;;18.00;12.00;;;;;;;;;;5072511;28;20029;-55
2021/12/18 13:48:38;;;;;;;10.77;9.20;;;;;;;;;;5051538;28;20017;-55
2021/12/18 13:51:15;;;;;;;22.17;11.97;;;;;;;;;;5044052;28;20356;-56
2021/12/18 13:53:49;;;;;;;14.93;10.97;;;;;;;;;;5031742;28;20037;-55
2021/12/18 13:56:16;;;;;;;15.17;10.47;;;;;;;;;;5051581;28;20052;-56
2021/12/18 13:58:43;;;;;;;14.93;10.80;;;;;;;;;;5071416;28;20033;-55
2021/12/18 14:01:11;;;;;;;14.32;10.18;;;;;;;;;;5061924;28;20048;-54
2021/12/18 14:03:42;;;;;;;12.13;9.00;;;;;;;;;;5058227;28;20036;-56
2021/12/18 14:06:12;;;;;;;15.13;10.57;;;;;;;;;;5060358;28;20071;-56
2021/12/18 14:08:39;;;;;;;12.30;9.53;;;;;;;;;;5071217;28;20032;-56
2021/12/18 14:11:06;;;;;;;14.47;9.93;;;;;;;;;;5062333;28;20390;-55
2021/12/18 14:13:49;;;;;;;14.23;9.97;;;;;;;;;;5050703;28;20035;-55
2021/12/18 14:16:16;;;;;;;11.47;10.27;;;;;;;;;;5049941;28;20025;-54
2021/12/18 14:18:47;;;;;;;12.67;9.47;;;;;;;;;;5051149;28;20518;-52
2021/12/18 14:21:15;;;;;;;9.00;6.97;;;;;;;;;;5052195;28;20078;-54
2021/12/18 14:23:41;;;;;;;14.10;9.87;;;;;;;;;;5051240;28;20104;-53
2021/12/18 14:26:12;;;;;;;14.43;10.77;;;;;;;;;;5051549;28;20043;-54
2021/12/18 14:28:38;;;;;;;15.60;9.95;;;;;;;;;;5051192;28;20029;-55
2021/12/18 14:31:22;;;;;;;19.60;9.50;;;;;;;;;;5052038;28;20024;-54
2021/12/18 14:33:55;;;;;;;13.87;10.77;;;;;;;;;;5051834;28;20021;-52
2021/12/18 14:36:40;;;;;;;14.77;10.80;;;;;;;;;;5051713;28;20033;-52
2021/12/18 14:39:06;;;;;;;13.00;10.20;;;;;;;;;;5049356;28;20164;-52
2021/12/18 14:41:35;;;;;;;18.07;9.23;;;;;;;;;;5048310;28;20502;-51
2021/12/18 14:44:01;;;;;;;13.40;10.63;;;;;;;;;;5051554;28;20036;-54
2021/12/18 14:46:27;;;;;;;10.73;8.93;;;;;;;;;;5050132;28;20428;-54
2021/12/18 14:48:53;;;;;;;14.50;9.67;;;;;;;;;;5049568;28;20029;-50
2021/12/18 14:51:28;;;;;;;11.63;8.87;;;;;;;;;;5049808;28;20025;-53
2021/12/18 14:54:01;;;;;;;11.07;9.67;;;;;;;;;;5047670;28;20056;-50
2021/12/18 14:56:27;;;;;;;15.07;9.70;;;;;;;;;;5049528;28;20025;-52
2021/12/18 14:58:53;;;;;;;15.30;8.83;;;;;;;;;;5049455;28;20086;-54
2021/12/18 15:01:20;;;;;;;16.13;10.27;;;;;;;;;;5050351;28;20494;-52
2021/12/18 15:03:46;;;;;;;14.30;9.93;;;;;;;;;;5049666;28;20029;-55
2021/12/18 15:06:18;;;;;;;15.60;10.10;;;;;;;;;;5049992;28;20037;-49
2021/12/18 15:08:48;;;;;;;12.83;10.00;;;;;;;;;;5048113;28;20048;-49
2021/12/18 15:11:14;;;;;;;10.30;7.57;;;;;;;;;;5048629;28;20031;-50
2021/12/18 15:13:42;;;;;;;12.93;9.20;;;;;;;;;;5049681;28;20091;-51
2021/12/18 15:16:12;;;;;;;11.87;9.67;;;;;;;;;;5050228;28;20421;-52